Terminal Aerodrome Forecast
Issued by NWS

Home | Current Version | Previous Version | Text Only | Print | Product List | Glossary On
Versions: 1 2 3 4 5 6 7 8 9 10 11 12 13 14 15 16 17
000
FTUS44 KJAN 181515 AAA
TAFGTR
TAF AMD
KGTR 181515Z 1815/1912 14008KT P6SM VCSH OVC014
     FM182100 08006KT 6SM -RA VCTS SCT020 OVC050CB
     FM190400 12008KT P6SM -RA SCT006 OVC015
     FM190700 16012KT 4SM -RA BR OVC003=

USA.gov is the U.S. government's official web portal to all federal, state and local government web resources and services.